Time;durP1;ratioP1;P1;durP2;ratioP2;P2;SDS_P1;SDS_P2;PMS_P1;PMS_P2;Temp;Humidity;BMP_temperature;BMP_pressure;BME280_temperature;BME280_humidity;BME280_pressure;Samples;Min_cycle;Max_cycle;Signal;HPM_P1;HPM_P2
2023/04/28 00:02:14;;;;;;;7.95;3.80;;;12.70;46.50;;;;;;5065342;28;20086;-68
2023/04/28 00:04:40;;;;;;;8.18;3.95;;;12.70;46.50;;;;;;5062539;28;20028;-67
2023/04/28 00:07:06;;;;;;;10.27;4.57;;;12.60;46.40;;;;;;5051869;28;20359;-67
2023/04/28 00:09:32;;;;;;;8.40;4.40;;;12.60;46.40;;;;;;5062927;28;20025;-67
2023/04/28 00:11:58;;;;;;;8.30;4.05;;;12.60;46.50;;;;;;5068646;28;20033;-68
2023/04/28 00:14:25;;;;;;;8.55;4.60;;;12.60;46.50;;;;;;5072824;28;20021;-67
2023/04/28 00:16:50;;;;;;;8.35;3.55;;;12.60;46.60;;;;;;5068570;28;20051;-68
2023/04/28 00:19:16;;;;;;;8.88;3.70;;;12.60;46.60;;;;;;5065685;28;20025;-67
2023/04/28 00:21:42;;;;;;;7.47;3.78;;;12.60;46.60;;;;;;5070650;28;20031;-68
2023/04/28 00:24:07;;;;;;;6.85;3.42;;;12.50;46.50;;;;;;5061627;28;20029;-67
2023/04/28 00:26:33;;;;;;;8.15;3.88;;;12.60;46.60;;;;;;5064647;28;20122;-67
2023/04/28 00:28:59;;;;;;;7.95;4.03;;;12.60;46.70;;;;;;5052788;28;20078;-67
2023/04/28 00:31:25;;;;;;;10.13;4.15;;;12.60;46.80;;;;;;5069148;28;20028;-68
2023/04/28 00:33:50;;;;;;;8.60;3.78;;;12.50;46.80;;;;;;5072104;28;20342;-68
2023/04/28 00:36:16;;;;;;;9.27;4.40;;;12.50;46.80;;;;;;5068957;28;20365;-68
2023/04/28 00:38:42;;;;;;;7.75;4.50;;;12.50;46.80;;;;;;5054330;28;20028;-68
2023/04/28 00:41:11;;;;;;;8.65;4.10;;;12.50;46.90;;;;;;5072153;28;20065;-68
2023/04/28 00:43:57;;;;;;;8.05;4.18;;;12.50;46.90;;;;;;5070830;28;20044;-68
2023/04/28 00:46:29;;;;;;;7.78;4.18;;;12.50;46.90;;;;;;5069700;28;20040;-69
2023/04/28 00:48:56;;;;;;;7.28;3.70;;;12.40;46.90;;;;;;5070587;28;20036;-67
2023/04/28 00:51:22;;;;;;;9.15;3.90;;;12.40;47.00;;;;;;5070955;28;20112;-68
2023/04/28 00:53:50;;;;;;;7.55;3.95;;;12.40;47.00;;;;;;5061555;28;20108;-68
2023/04/28 00:56:16;;;;;;;7.47;3.45;;;12.40;47.10;;;;;;5061331;28;20366;-68
2023/04/28 00:58:42;;;;;;;7.93;3.63;;;12.30;47.10;;;;;;5056996;28;20043;-68
2023/04/28 01:01:09;;;;;;;8.73;3.60;;;12.40;47.20;;;;;;5068767;28;20055;-68
2023/04/28 01:03:37;;;;;;;7.32;3.78;;;12.40;47.20;;;;;;5066941;28;20036;-68
2023/04/28 01:06:09;;;;;;;7.35;3.25;;;12.30;47.20;;;;;;5074682;28;20146;-68
2023/04/28 01:08:37;;;;;;;7.22;3.30;;;12.30;47.30;;;;;;5058225;28;20028;-68
2023/04/28 01:11:06;;;;;;;7.82;3.58;;;12.30;47.30;;;;;;5075490;28;20025;-68
2023/04/28 01:13:51;;;;;;;7.55;3.20;;;12.30;47.30;;;;;;5068325;28;20139;-68
2023/04/28 01:16:17;;;;;;;7.60;4.20;;;12.30;47.50;;;;;;5074896;28;20029;-68
2023/04/28 01:18:47;;;;;;;7.03;3.80;;;12.30;47.50;;;;;;5074110;28;20354;-68
2023/04/28 01:21:13;;;;;;;8.15;3.80;;;12.30;47.80;;;;;;5057171;28;20032;-68
2023/04/28 01:23:39;;;;;;;9.02;3.67;;;12.30;48.00;;;;;;5062109;28;20025;-68
2023/04/28 01:26:05;;;;;;;8.38;3.47;;;12.30;48.20;;;;;;5070431;28;20031;-68
2023/04/28 01:28:30;;;;;;;9.10;3.70;;;12.20;48.50;;;;;;5073613;28;20017;-68
2023/04/28 01:30:56;;;;;;;7.65;3.67;;;12.20;48.80;;;;;;5075290;28;20095;-68
2023/04/28 01:33:22;;;;;;;8.82;4.10;;;12.10;49.00;;;;;;5065368;28;20025;-68
2023/04/28 01:35:48;;;;;;;7.65;3.92;;;12.10;49.40;;;;;;5058050;28;20114;-68
2023/04/28 01:38:15;;;;;;;7.68;3.92;;;12.10;49.90;;;;;;5073318;28;20039;-68
2023/04/28 01:40:41;;;;;;;9.48;4.13;;;12.10;50.50;;;;;;5074751;28;20029;-68
2023/04/28 01:43:07;;;;;;;9.90;4.30;;;12.10;50.60;;;;;;5073789;28;20032;-68
2023/04/28 01:45:33;;;;;;;8.35;3.90;;;12.00;51.30;;;;;;5071983;28;20027;-68
2023/04/28 01:47:58;;;;;;;8.80;3.83;;;12.00;50.90;;;;;;5071399;28;20075;-68
2023/04/28 01:50:24;;;;;;;8.60;3.67;;;12.00;51.10;;;;;;5057492;28;20373;-68
2023/04/28 01:52:50;;;;;;;10.40;4.55;;;12.00;51.30;;;;;;5053419;28;20094;-67
2023/04/28 01:55:16;;;;;;;9.63;4.78;;;12.00;51.60;;;;;;5063167;28;20037;-67
2023/04/28 01:57:42;;;;;;;9.73;4.40;;;11.90;51.80;;;;;;5060620;28;20036;-67
2023/04/28 02:00:08;;;;;;;9.48;4.25;;;11.90;51.90;;;;;;5059534;28;20043;-68
2023/04/28 02:02:36;;;;;;;7.72;4.20;;;11.90;52.00;;;;;;5072017;28;20036;-67
2023/04/28 02:05:02;;;;;;;7.93;4.22;;;11.90;52.10;;;;;;5050836;28;20369;-67
2023/04/28 02:07:29;;;;;;;10.27;4.40;;;11.90;52.10;;;;;;5073674;28;20017;-68
2023/04/28 02:09:54;;;;;;;7.20;3.60;;;11.90;52.20;;;;;;5073113;28;20028;-68
2023/04/28 02:12:20;;;;;;;9.02;3.80;;;11.90;52.30;;;;;;5074401;28;20028;-68
2023/04/28 02:14:46;;;;;;;7.32;3.75;;;11.90;52.30;;;;;;5058149;28;20055;-67
2023/04/28 02:17:11;;;;;;;7.40;3.80;;;11.90;52.40;;;;;;5077859;28;20032;-67
2023/04/28 02:19:37;;;;;;;7.82;4.15;;;11.90;52.30;;;;;;5064400;28;20033;-67
2023/04/28 02:22:04;;;;;;;8.38;3.60;;;11.80;52.20;;;;;;5055018;28;20477;-68
2023/04/28 02:24:35;;;;;;;8.15;3.78;;;11.90;52.30;;;;;;5046698;28;20032;-68
2023/04/28 02:27:00;;;;;;;7.97;3.67;;;11.80;52.40;;;;;;5072911;28;20357;-67
2023/04/28 02:29:27;;;;;;;12.82;4.00;;;11.80;52.50;;;;;;5050566;28;20024;-67
2023/04/28 02:31:52;;;;;;;9.23;4.18;;;11.80;52.60;;;;;;5073435;28;20031;-68
2023/04/28 02:34:18;;;;;;;7.18;3.50;;;11.80;52.60;;;;;;5065089;28;20025;-68
2023/04/28 02:36:44;;;;;;;8.48;3.50;;;11.80;52.60;;;;;;5072620;28;20021;-67
2023/04/28 02:39:09;;;;;;;7.70;4.10;;;11.80;52.70;;;;;;5072352;28;20031;-67
2023/04/28 02:41:35;;;;;;;8.25;3.90;;;11.80;52.80;;;;;;5070320;28;20036;-68
2023/04/28 02:44:01;;;;;;;7.70;3.97;;;11.80;52.80;;;;;;5049455;28;20027;-67
2023/04/28 02:46:27;;;;;;;8.02;3.92;;;11.80;52.90;;;;;;5073239;28;20366;-67
2023/04/28 02:48:53;;;;;;;7.15;3.40;;;11.80;52.90;;;;;;5072195;28;20067;-67
2023/04/28 02:51:18;;;;;;;8.57;4.28;;;11.80;52.90;;;;;;5054100;28;20052;-67
2023/04/28 02:53:44;;;;;;;9.77;3.85;;;11.70;52.90;;;;;;5063879;28;20132;-67
2023/04/28 02:56:10;;;;;;;6.57;3.85;;;11.70;52.80;;;;;;5072523;28;20028;-67
2023/04/28 02:58:36;;;;;;;6.95;3.45;;;11.70;52.80;;;;;;5062055;28;20028;-68
2023/04/28 03:01:02;;;;;;;6.63;3.40;;;11.70;52.90;;;;;;5056393;28;20454;-67
2023/04/28 03:03:27;;;;;;;8.75;3.80;;;11.70;52.80;;;;;;5073047;28;20034;-67
2023/04/28 03:05:55;;;;;;;7.95;3.75;;;11.70;52.80;;;;;;5073052;28;20555;-67
2023/04/28 03:08:21;;;;;;;7.43;3.90;;;11.70;52.80;;;;;;5053968;28;20025;-67
2023/04/28 03:10:47;;;;;;;6.72;3.50;;;11.70;52.90;;;;;;5062213;28;20442;-67
2023/04/28 03:13:13;;;;;;;7.47;4.05;;;11.70;52.90;;;;;;5056124;28;20021;-67
2023/04/28 03:15:41;;;;;;;8.10;4.30;;;11.70;52.90;;;;;;5062532;28;20318;-67
2023/04/28 03:18:06;;;;;;;7.32;3.55;;;11.70;52.90;;;;;;5072555;28;20028;-67
2023/04/28 03:20:32;;;;;;;7.97;3.80;;;11.70;52.90;;;;;;5063336;28;21407;-67
2023/04/28 03:22:58;;;;;;;7.13;3.80;;;11.70;52.90;;;;;;5071230;28;20024;-68
2023/04/28 03:25:24;;;;;;;7.47;3.80;;;11.70;53.00;;;;;;5069052;28;20029;-67
2023/04/28 03:27:50;;;;;;;7.38;3.95;;;11.60;53.00;;;;;;5071919;28;20370;-68
2023/04/28 03:30:16;;;;;;;10.32;3.85;;;11.70;53.10;;;;;;5072298;28;20031;-67
2023/04/28 03:32:42;;;;;;;7.13;3.78;;;11.70;53.10;;;;;;5060800;28;20047;-68
2023/04/28 03:35:08;;;;;;;8.30;3.78;;;11.60;53.10;;;;;;5063135;28;20047;-68
2023/04/28 03:37:34;;;;;;;8.00;4.03;;;11.60;53.00;;;;;;5067583;28;20016;-68
2023/04/28 03:40:00;;;;;;;9.57;4.57;;;11.70;53.10;;;;;;5065459;28;20028;-68
2023/04/28 03:42:26;;;;;;;8.90;4.20;;;11.60;53.00;;;;;;5035373;28;20063;-68
2023/04/28 03:45:07;;;;;;;9.38;3.97;;;11.60;53.20;;;;;;5063091;28;20021;-67
2023/04/28 03:47:34;;;;;;;7.85;3.85;;;11.60;53.20;;;;;;5067327;28;20098;-68
2023/04/28 03:50:00;;;;;;;7.82;4.38;;;11.60;53.90;;;;;;5064345;28;20037;-68
2023/04/28 03:52:26;;;;;;;8.30;3.85;;;11.60;53.40;;;;;;5071201;28;20407;-68
2023/04/28 03:54:52;;;;;;;7.47;4.00;;;11.60;53.40;;;;;;5052438;28;20033;-67
2023/04/28 03:57:18;;;;;;;8.20;4.28;;;11.60;53.40;;;;;;5063308;28;20082;-68
2023/04/28 03:59:44;;;;;;;10.48;4.60;;;11.60;53.50;;;;;;5064800;28;20020;-67
2023/04/28 04:02:10;;;;;;;8.07;4.30;;;11.60;53.90;;;;;;5066519;28;20453;-67
2023/04/28 04:04:35;;;;;;;8.52;4.82;;;11.60;53.70;;;;;;5064745;28;20029;-67
2023/04/28 04:07:03;;;;;;;8.40;4.00;;;11.60;53.80;;;;;;5069714;28;20330;-68
2023/04/28 04:09:29;;;;;;;9.35;4.05;;;11.60;53.80;;;;;;5067996;28;20108;-68
2023/04/28 04:11:54;;;;;;;8.02;4.35;;;11.60;53.90;;;;;;5052378;28;20451;-68
2023/04/28 04:14:20;;;;;;;9.13;4.22;;;11.60;54.00;;;;;;5069248;28;20390;-68
2023/04/28 04:16:47;;;;;;;9.00;4.50;;;11.60;54.10;;;;;;5049725;28;20470;-68
2023/04/28 04:19:13;;;;;;;9.15;4.57;;;11.60;54.10;;;;;;5064933;28;20379;-68
2023/04/28 04:21:42;;;;;;;11.15;4.55;;;11.60;54.20;;;;;;5061447;28;20025;-68
2023/04/28 04:24:08;;;;;;;9.88;4.35;;;11.60;54.40;;;;;;5070262;28;20335;-68
2023/04/28 04:26:34;;;;;;;9.05;4.78;;;11.60;54.40;;;;;;5057960;28;20115;-68
2023/04/28 04:29:00;;;;;;;8.75;4.90;;;11.60;54.60;;;;;;5054452;28;20021;-68
2023/04/28 04:31:26;;;;;;;9.13;5.15;;;11.60;54.70;;;;;;5060375;28;20032;-68
2023/04/28 04:33:52;;;;;;;9.52;5.30;;;11.60;54.80;;;;;;5059748;28;20450;-68
2023/04/28 04:36:19;;;;;;;11.25;4.90;;;11.60;55.00;;;;;;5069663;28;20034;-68
2023/04/28 04:38:45;;;;;;;9.93;4.57;;;11.60;55.10;;;;;;5065372;28;20028;-69
2023/04/28 04:41:15;;;;;;;9.00;4.70;;;11.60;55.10;;;;;;5052021;28;20016;-69
2023/04/28 04:43:41;;;;;;;8.38;4.75;;;11.60;55.20;;;;;;5063708;28;20104;-68
2023/04/28 04:46:07;;;;;;;8.70;4.45;;;11.60;55.30;;;;;;5072591;28;20553;-68
2023/04/28 04:48:33;;;;;;;8.07;4.82;;;11.60;55.40;;;;;;5055430;28;20149;-69
2023/04/28 04:50:59;;;;;;;9.45;5.03;;;11.60;55.50;;;;;;5068401;28;20397;-67
2023/04/28 04:53:25;;;;;;;8.95;5.28;;;11.60;55.50;;;;;;5058192;28;20087;-68
2023/04/28 04:55:53;;;;;;;9.35;4.75;;;11.60;55.60;;;;;;5067220;28;20100;-68
2023/04/28 04:58:20;;;;;;;9.98;4.70;;;11.60;55.70;;;;;;5059117;28;20027;-68
2023/04/28 05:01:12;;;;;;;10.43;4.43;;;11.60;55.80;;;;;;5068880;28;20039;-69
2023/04/28 05:03:37;;;;;;;10.40;5.03;;;11.60;55.90;;;;;;5065471;28;20377;-69
2023/04/28 05:06:03;;;;;;;9.90;6.00;;;11.60;56.10;;;;;;5075920;28;20529;-68
2023/04/28 05:08:39;;;;;;;10.20;5.47;;;11.60;56.20;;;;;;5063824;28;20035;-68
2023/04/28 05:11:06;;;;;;;9.90;5.95;;;11.70;56.40;;;;;;5071748;28;20526;-65
2023/04/28 05:13:31;;;;;;;9.77;6.10;;;11.70;56.50;;;;;;5061377;28;20024;-63
2023/04/28 05:16:00;;;;;;;11.23;5.75;;;11.70;56.60;;;;;;5069017;28;20028;-63
2023/04/28 05:18:42;;;;;;;10.18;6.10;;;11.80;56.80;;;;;;5074964;28;20028;-63
2023/04/28 05:21:10;;;;;;;12.38;5.80;;;11.80;56.90;;;;;;5075195;28;20028;-63
2023/04/28 05:23:36;;;;;;;10.80;6.15;;;11.80;57.00;;;;;;5074712;28;20039;-63
2023/04/28 05:26:03;;;;;;;10.95;5.93;;;11.90;57.10;;;;;;5074405;28;20330;-63
2023/04/28 05:28:30;;;;;;;10.75;6.85;;;11.90;57.20;;;;;;5062564;28;20055;-63
2023/04/28 05:30:57;;;;;;;16.00;6.95;;;11.90;57.40;;;;;;5058663;28;20452;-62
2023/04/28 05:33:23;;;;;;;10.45;6.72;;;12.00;57.60;;;;;;5062465;28;20100;-63
2023/04/28 05:35:49;;;;;;;11.75;6.22;;;12.00;57.70;;;;;;5072878;28;20353;-63
2023/04/28 05:38:15;;;;;;;12.70;6.63;;;12.00;57.80;;;;;;5056990;28;20079;-65
2023/04/28 05:40:42;;;;;;;12.27;6.57;;;12.00;58.00;;;;;;5070884;28;20025;-63
2023/04/28 05:43:08;;;;;;;11.10;6.78;;;12.00;58.20;;;;;;5064328;28;20437;-62
2023/04/28 05:45:34;;;;;;;13.23;7.13;;;12.10;58.40;;;;;;5075222;28;20032;-63
2023/04/28 05:48:01;;;;;;;11.18;6.75;;;12.10;58.60;;;;;;5068208;28;20048;-64
2023/04/28 05:50:27;;;;;;;13.52;7.30;;;12.10;58.80;;;;;;5073965;28;20029;-64
2023/04/28 05:52:53;;;;;;;13.75;7.38;;;12.00;58.90;;;;;;5069367;28;20032;-64
2023/04/28 05:55:19;;;;;;;11.65;7.15;;;12.10;59.10;;;;;;5067290;28;20130;-63
2023/04/28 05:57:44;;;;;;;11.65;7.35;;;12.10;59.40;;;;;;5051461;28;20410;-63
2023/04/28 06:00:11;;;;;;;12.73;7.65;;;12.10;59.50;;;;;;5055482;28;20021;-64
2023/04/28 06:02:40;;;;;;;12.93;7.97;;;12.10;59.70;;;;;;5067794;28;20409;-63
2023/04/28 06:05:06;;;;;;;14.15;8.40;;;12.20;60.00;;;;;;5067152;28;20116;-64
2023/04/28 06:07:32;;;;;;;13.23;8.13;;;12.20;60.20;;;;;;5067758;28;20056;-63
2023/04/28 06:09:58;;;;;;;13.38;8.30;;;12.20;60.50;;;;;;5065215;28;20057;-63
2023/04/28 06:12:25;;;;;;;13.15;7.70;;;12.20;60.60;;;;;;5051614;28;20029;-63
2023/04/28 06:14:54;;;;;;;13.63;8.75;;;12.30;60.90;;;;;;5066707;28;20021;-64
2023/04/28 06:17:20;;;;;;;14.68;8.60;;;12.30;61.20;;;;;;5063960;28;20414;-63
2023/04/28 06:19:45;;;;;;;14.45;8.38;;;12.20;61.50;;;;;;5081594;28;20039;-64
2023/04/28 06:22:11;;;;;;;15.10;8.45;;;12.30;62.10;;;;;;5065398;28;20031;-63
2023/04/28 06:24:37;;;;;;;13.50;8.75;;;12.30;62.50;;;;;;5062032;28;20067;-63
2023/04/28 06:27:07;;;;;;;14.60;8.07;;;12.20;63.00;;;;;;5064840;28;20369;-62
2023/04/28 06:29:33;;;;;;;13.13;7.97;;;12.20;63.50;;;;;;5064718;28;20031;-63
2023/04/28 06:31:58;;;;;;;13.82;8.93;;;12.20;64.20;;;;;;5051427;28;20027;-64
2023/04/28 06:34:27;;;;;;;14.93;9.15;;;12.20;64.60;;;;;;5066714;28;20078;-64
2023/04/28 06:36:54;;;;;;;15.63;9.35;;;12.20;65.00;;;;;;5050922;28;20035;-63
2023/04/28 06:39:21;;;;;;;13.77;9.02;;;12.20;65.40;;;;;;5065839;28;20059;-64
2023/04/28 06:41:47;;;;;;;14.25;9.23;;;12.20;65.80;;;;;;5060373;28;20063;-65
2023/04/28 06:44:13;;;;;;;17.83;9.82;;;12.20;66.20;;;;;;5066852;28;20090;-63
2023/04/28 06:46:39;;;;;;;16.10;9.30;;;12.20;66.60;;;;;;5054661;28;20473;-63
2023/04/28 06:49:05;;;;;;;14.23;9.77;;;12.20;66.90;;;;;;5064681;28;20107;-63
2023/04/28 06:51:31;;;;;;;15.68;10.57;;;12.30;67.20;;;;;;5060426;28;20402;-63
2023/04/28 06:53:57;;;;;;;14.88;10.18;;;12.30;67.60;;;;;;5063306;28;20120;-65
2023/04/28 06:56:23;;;;;;;16.63;10.45;;;12.30;67.80;;;;;;5054531;28;20418;-65
2023/04/28 06:58:50;;;;;;;16.20;10.68;;;12.40;68.10;;;;;;5066253;28;20424;-62
2023/04/28 07:01:16;;;;;;;16.30;9.63;;;12.40;68.30;;;;;;5069510;28;20043;-62
2023/04/28 07:03:42;;;;;;;16.25;10.50;;;12.50;68.50;;;;;;5067950;28;20099;-63
2023/04/28 07:06:08;;;;;;;16.65;10.77;;;12.60;68.60;;;;;;5078439;28;20070;-63
2023/04/28 07:08:35;;;;;;;17.02;10.90;;;12.80;68.70;;;;;;5068870;28;20024;-63
2023/04/28 07:11:05;;;;;;;27.88;19.38;;;12.90;68.80;;;;;;5074505;28;20318;-63
2023/04/28 07:13:31;;;;;;;23.88;15.73;;;13.00;68.90;;;;;;5065495;28;20028;-61
2023/04/28 07:15:57;;;;;;;21.08;14.68;;;13.10;69.00;;;;;;5060844;28;20065;-62
2023/04/28 07:18:23;;;;;;;23.02;15.40;;;13.20;69.10;;;;;;5067054;28;20121;-61
2023/04/28 07:20:49;;;;;;;18.33;13.32;;;13.30;69.20;;;;;;5071238;28;20127;-62
2023/04/28 07:23:15;;;;;;;18.58;11.68;;;13.20;69.20;;;;;;5072505;28;20024;-63
2023/04/28 07:25:41;;;;;;;18.40;11.25;;;13.30;69.40;;;;;;5072609;28;20039;-66
2023/04/28 07:28:07;;;;;;;14.55;10.05;;;13.30;69.50;;;;;;5072474;28;20032;-63
2023/04/28 07:30:33;;;;;;;14.85;9.85;;;13.30;69.70;;;;;;5068746;28;20033;-64
2023/04/28 07:32:59;;;;;;;15.60;10.38;;;13.30;69.90;;;;;;5073940;28;20085;-63
2023/04/28 07:35:25;;;;;;;18.35;11.57;;;13.20;70.00;;;;;;5068239;28;20523;-64
2023/04/28 07:37:51;;;;;;;15.93;10.10;;;13.20;70.20;;;;;;5074045;28;20033;-64
2023/04/28 07:40:18;;;;;;;17.95;11.25;;;13.20;70.40;;;;;;5062345;28;20033;-64
2023/04/28 07:42:44;;;;;;;16.35;11.40;;;13.20;70.60;;;;;;5073481;28;20037;-63
2023/04/28 07:45:10;;;;;;;15.90;11.18;;;13.20;70.60;;;;;;5063333;28;20094;-63
2023/04/28 07:47:36;;;;;;;15.90;11.57;;;13.30;70.60;;;;;;5074168;28;20024;-63
2023/04/28 07:50:04;;;;;;;16.48;11.18;;;13.30;70.60;;;;;;5072021;28;20325;-63
2023/04/28 07:52:30;;;;;;;17.77;12.07;;;13.30;70.70;;;;;;5070738;28;20033;-62
2023/04/28 07:54:56;;;;;;;15.38;10.77;;;13.40;70.80;;;;;;5066005;28;20465;-62
2023/04/28 07:57:22;;;;;;;18.17;11.23;;;13.40;70.70;;;;;;5060460;28;20033;-63
2023/04/28 07:59:48;;;;;;;20.52;12.68;;;13.40;70.80;;;;;;5053620;28;20017;-63
2023/04/28 08:02:14;;;;;;;18.30;11.25;;;13.40;70.90;;;;;;5053504;28;20021;-64
2023/04/28 08:04:40;;;;;;;15.48;10.80;;;13.40;71.00;;;;;;5061713;28;20112;-63
2023/04/28 08:07:07;;;;;;;16.27;10.20;;;13.40;71.10;;;;;;5060145;28;20482;-64
2023/04/28 08:09:33;;;;;;;15.52;10.35;;;13.40;71.20;;;;;;5057286;28;20077;-63
2023/04/28 08:12:00;;;;;;;18.10;10.90;;;13.40;71.30;;;;;;5058950;28;20032;-63
2023/04/28 08:14:26;;;;;;;15.40;11.18;;;13.40;71.40;;;;;;5074102;28;20039;-63
2023/04/28 08:16:52;;;;;;;15.27;10.65;;;13.40;71.50;;;;;;5069259;28;20036;-64
2023/04/28 08:19:18;;;;;;;16.23;10.85;;;13.40;71.60;;;;;;5062890;28;20073;-63
2023/04/28 08:21:44;;;;;;;19.77;11.63;;;13.40;71.80;;;;;;5064365;28;20035;-63
2023/04/28 08:24:10;;;;;;;15.48;11.32;;;13.40;71.90;;;;;;5063582;28;20155;-64
2023/04/28 08:26:37;;;;;;;18.55;11.20;;;13.50;72.00;;;;;;5073312;28;20115;-63
2023/04/28 08:29:03;;;;;;;17.23;11.65;;;13.60;72.00;;;;;;5063932;28;20103;-64
2023/04/28 08:31:29;;;;;;;17.13;10.98;;;13.80;71.90;;;;;;5057736;28;20033;-64
2023/04/28 08:33:55;;;;;;;14.77;10.98;;;14.00;71.70;;;;;;5081960;28;20356;-64
2023/04/28 08:36:22;;;;;;;16.48;10.57;;;14.20;71.50;;;;;;5070061;28;20024;-63
2023/04/28 08:38:48;;;;;;;16.17;11.02;;;14.40;71.20;;;;;;5064588;28;20155;-64
2023/04/28 08:41:18;;;;;;;18.30;10.77;;;14.50;71.00;;;;;;5069434;28;20128;-64
2023/04/28 08:43:44;;;;;;;17.95;11.55;;;14.50;71.10;;;;;;5075987;28;20043;-63
2023/04/28 08:46:13;;;;;;;14.65;10.38;;;14.50;71.20;;;;;;5058241;28;20404;-63
2023/04/28 08:48:46;;;;;;;16.33;10.90;;;14.50;71.20;;;;;;5059284;28;20043;-63
2023/04/28 08:51:15;;;;;;;17.40;11.52;;;14.40;71.40;;;;;;5062075;28;20032;-63
2023/04/28 08:53:46;;;;;;;18.00;10.20;;;14.50;71.60;;;;;;5065620;28;20390;-64
2023/04/28 08:56:15;;;;;;;15.82;10.88;;;14.50;71.70;;;;;;5069751;28;20044;-66
2023/04/28 08:58:41;;;;;;;16.08;10.90;;;14.40;71.70;;;;;;5072613;28;20081;-66
2023/04/28 09:01:08;;;;;;;18.05;11.20;;;14.40;71.70;;;;;;5069050;28;20029;-66
2023/04/28 09:03:33;;;;;;;16.02;10.85;;;14.40;71.80;;;;;;5065555;28;20092;-65
2023/04/28 09:06:00;;;;;;;18.05;11.30;;;14.40;71.90;;;;;;5068245;28;20028;-64
2023/04/28 09:08:27;;;;;;;17.90;11.20;;;14.40;72.00;;;;;;5073576;28;20319;-63
2023/04/28 09:11:12;;;;;;;18.58;11.00;;;14.30;72.80;;;;;;5068941;28;20028;-64
2023/04/28 09:13:39;;;;;;;15.38;10.85;;;14.30;72.40;;;;;;5062759;28;20013;-64
2023/04/28 09:16:05;;;;;;;15.25;11.30;;;14.20;72.40;;;;;;5073066;28;20112;-65
2023/04/28 09:18:31;;;;;;;14.63;11.07;;;14.30;72.70;;;;;;5067850;28;20091;-66
2023/04/28 09:21:08;;;;;;;16.70;11.88;;;14.30;72.80;;;;;;5069853;28;20094;-66
2023/04/28 09:23:54;;;;;;;19.55;12.73;;;14.30;73.00;;;;;;5073320;28;20826;-66
2023/04/28 09:26:20;;;;;;;18.55;11.35;;;14.40;73.00;;;;;;5069382;28;20072;-63
2023/04/28 09:28:46;;;;;;;16.55;11.07;;;14.40;73.10;;;;;;5071785;28;20116;-63
2023/04/28 09:31:26;;;;;;;15.93;10.50;;;14.40;73.20;;;;;;5071779;28;20036;-63
2023/04/28 09:33:58;;;;;;;15.05;9.68;;;14.40;73.50;;;;;;5071863;28;20020;-63
2023/04/28 09:36:29;;;;;;;14.90;10.07;;;14.40;73.50;;;;;;5068578;28;20036;-64
2023/04/28 09:38:58;;;;;;;20.10;10.68;;;14.40;73.50;;;;;;5066789;28;20071;-65
2023/04/28 09:41:34;;;;;;;15.35;10.35;;;14.40;73.50;;;;;;5063844;28;20024;-65
2023/04/28 09:44:13;;;;;;;16.05;9.80;;;14.40;73.60;;;;;;5067391;28;20115;-66
2023/04/28 09:46:39;;;;;;;14.30;9.77;;;14.50;73.70;;;;;;5084185;28;20089;-66
2023/04/28 09:49:05;;;;;;;13.82;9.57;;;14.50;73.70;;;;;;5070599;28;20040;-66
2023/04/28 09:51:33;;;;;;;12.75;8.57;;;14.40;73.70;;;;;;5069912;28;20024;-64
2023/04/28 09:54:01;;;;;;;15.38;10.07;;;14.50;73.70;;;;;;5066255;28;20024;-63
2023/04/28 09:56:29;;;;;;;14.15;9.75;;;14.50;73.80;;;;;;5068602;28;20058;-63
2023/04/28 09:59:00;;;;;;;15.50;10.73;;;14.50;73.90;;;;;;5071152;28;20020;-63
2023/04/28 10:01:37;;;;;;;14.30;10.18;;;14.40;74.00;;;;;;5046399;28;20045;-63
2023/04/28 10:04:04;;;;;;;15.38;10.13;;;14.40;74.20;;;;;;5060817;28;20036;-63
2023/04/28 10:06:32;;;;;;;15.20;10.52;;;14.40;74.20;;;;;;5069901;28;20056;-64
2023/04/28 10:08:59;;;;;;;15.15;10.30;;;14.40;74.40;;;;;;5064539;28;20017;-64
2023/04/28 10:11:25;;;;;;;14.52;11.15;;;14.30;74.60;;;;;;5069590;28;20024;-64
2023/04/28 10:13:52;;;;;;;15.02;10.02;;;14.30;74.70;;;;;;5062819;28;20116;-64
2023/04/28 10:16:20;;;;;;;18.00;11.60;;;14.30;74.80;;;;;;5065191;28;20093;-64
2023/04/28 10:18:46;;;;;;;15.35;11.27;;;14.40;75.00;;;;;;5057290;28;20040;-64
2023/04/28 10:21:17;;;;;;;14.63;11.05;;;14.30;75.00;;;;;;5062350;28;20029;-65
2023/04/28 10:24:01;;;;;;;15.68;11.77;;;14.40;75.30;;;;;;5058680;28;20028;-64
2023/04/28 10:26:54;;;;;;;14.48;11.07;;;14.40;75.30;;;;;;5061818;28;20077;-64
2023/04/28 10:29:24;;;;;;;16.52;10.30;;;14.40;75.50;;;;;;5056953;28;20025;-63
2023/04/28 10:32:24;;;;;;;16.17;11.93;;;14.40;75.60;;;;;;5058274;28;20063;-65
2023/04/28 10:34:51;;;;;;;13.90;10.55;;;14.40;75.80;;;;;;5056452;28;20025;-65
2023/04/28 10:37:18;;;;;;;15.95;11.95;;;14.40;75.80;;;;;;5058151;28;20041;-65
2023/04/28 10:40:21;;;;;;;15.77;11.65;;;14.50;76.00;;;;;;5059016;28;20120;-65
2023/04/28 10:42:52;;;;;;;13.75;11.02;;;14.50;76.30;;;;;;5065535;28;20029;-65
2023/04/28 10:45:58;;;;;;;15.25;11.15;;;14.50;76.30;;;;;;5060526;28;20029;-65
2023/04/28 10:48:33;;;;;;;16.08;11.60;;;14.50;76.50;;;;;;5065518;28;20119;-65
2023/04/28 10:51:02;;;;;;;14.70;10.77;;;14.60;77.30;;;;;;5070474;28;20357;-65
2023/04/28 10:53:43;;;;;;;14.80;12.02;;;14.60;76.80;;;;;;5057569;28;20066;-65
2023/04/28 10:56:20;;;;;;;22.38;12.88;;;14.60;77.10;;;;;;5057711;28;20029;-65
2023/04/28 10:58:48;;;;;;;16.95;11.65;;;14.60;77.30;;;;;;5058661;28;20112;-64
2023/04/28 11:01:23;;;;;;;17.13;12.77;;;14.60;77.50;;;;;;5059276;28;20032;-64
2023/04/28 11:03:58;;;;;;;14.57;11.48;;;14.60;77.70;;;;;;5062518;28;20127;-64
2023/04/28 11:06:27;;;;;;;15.07;12.02;;;14.70;77.80;;;;;;5073952;28;20087;-64
2023/04/28 11:08:59;;;;;;;14.80;11.13;;;14.70;78.00;;;;;;5066023;28;20365;-64
2023/04/28 11:11:29;;;;;;;15.15;11.27;;;14.70;78.10;;;;;;5056975;28;20456;-64
2023/04/28 11:14:17;;;;;;;13.98;11.15;;;14.70;78.20;;;;;;5069167;28;20056;-64
2023/04/28 11:16:59;;;;;;;13.48;10.73;;;14.80;78.50;;;;;;5066451;28;20059;-64
2023/04/28 11:19:45;;;;;;;12.15;9.93;;;14.80;78.60;;;;;;5066026;28;20044;-64
2023/04/28 11:22:15;;;;;;;13.48;10.80;;;14.80;78.60;;;;;;5073861;28;20028;-64
2023/04/28 11:24:41;;;;;;;11.70;9.18;;;14.90;78.70;;;;;;5070089;28;20021;-64
2023/04/28 11:27:07;;;;;;;11.93;9.68;;;14.90;78.70;;;;;;5069864;28;20028;-64
2023/04/28 11:29:37;;;;;;;11.82;9.05;;;14.90;78.90;;;;;;5066147;28;20043;-64
2023/04/28 11:32:04;;;;;;;12.98;9.35;;;15.00;79.10;;;;;;5074056;28;20059;-64
2023/04/28 11:34:30;;;;;;;12.07;9.32;;;15.00;79.30;;;;;;5068539;28;20024;-64
2023/04/28 11:36:56;;;;;;;12.85;9.60;;;15.00;79.30;;;;;;5073203;28;20518;-64
2023/04/28 11:39:40;;;;;;;11.18;8.35;;;15.10;79.40;;;;;;5072637;28;20360;-64
2023/04/28 11:42:09;;;;;;;10.82;7.85;;;15.10;79.60;;;;;;5070512;28;20051;-64
2023/04/28 11:44:35;;;;;;;10.90;7.40;;;15.00;79.60;;;;;;5068349;28;20434;-64
2023/04/28 11:47:02;;;;;;;10.68;8.13;;;15.00;79.60;;;;;;5069638;28;20024;-64
2023/04/28 11:49:31;;;;;;;10.52;7.88;;;15.00;79.90;;;;;;5071213;28;20563;-64
2023/04/28 11:52:03;;;;;;;11.27;7.45;;;15.00;80.10;;;;;;5060024;28;20434;-63
2023/04/28 11:54:29;;;;;;;12.45;7.97;;;15.00;80.20;;;;;;5067283;28;20028;-63
2023/04/28 11:56:56;;;;;;;12.20;8.80;;;15.00;80.30;;;;;;5062938;28;20055;-64
2023/04/28 11:59:27;;;;;;;12.68;9.02;;;15.00;80.40;;;;;;5058576;28;20035;-64
2023/04/28 12:01:58;;;;;;;12.18;9.27;;;15.10;81.20;;;;;;5056456;28;20077;-64
2023/04/28 12:04:37;;;;;;;13.37;9.27;;;15.20;80.40;;;;;;5058119;28;20032;-63
2023/04/28 12:07:09;;;;;;;12.80;8.82;;;15.30;80.30;;;;;;5068448;28;20334;-63
2023/04/28 12:09:35;;;;;;;12.18;8.85;;;15.40;80.20;;;;;;5057899;28;20012;-64
2023/04/28 12:12:06;;;;;;;13.32;9.60;;;15.50;80.00;;;;;;5067330;28;20029;-63
2023/04/28 12:14:52;;;;;;;14.43;10.25;;;15.40;80.10;;;;;;5064345;28;20063;-64
2023/04/28 12:17:30;;;;;;;15.07;10.50;;;15.50;80.20;;;;;;5068879;28;20674;-63
2023/04/28 12:19:57;;;;;;;15.02;10.70;;;15.40;80.30;;;;;;5055792;28;20025;-63
2023/04/28 12:22:24;;;;;;;14.77;10.77;;;15.40;80.40;;;;;;5062521;28;20052;-63
2023/04/28 12:25:03;;;;;;;13.63;10.63;;;15.40;80.50;;;;;;5064759;28;20079;-64
2023/04/28 12:27:30;;;;;;;14.30;10.18;;;15.40;80.70;;;;;;5071101;28;20043;-63
2023/04/28 12:29:57;;;;;;;15.75;10.77;;;15.30;80.50;;;;;;5062213;28;20025;-64
2023/04/28 12:32:40;;;;;;;15.18;10.70;;;15.30;80.70;;;;;;5066649;28;20056;-63
2023/04/28 12:35:06;;;;;;;14.45;9.82;;;15.30;80.90;;;;;;5055228;28;20086;-63
2023/04/28 12:37:32;;;;;;;15.77;10.80;;;15.20;81.00;;;;;;5056944;28;20151;-62
2023/04/28 12:39:59;;;;;;;15.85;10.52;;;15.20;81.10;;;;;;5062842;28;20029;-62
2023/04/28 12:42:25;;;;;;;15.70;11.30;;;15.20;81.30;;;;;;5066014;28;20032;-62
2023/04/28 12:44:51;;;;;;;13.77;10.30;;;15.20;81.40;;;;;;5062486;28;20486;-63